createdAt,value
2018-07-30T00:00:05.038Z,33.20
2018-07-30T00:02:44.282Z,33.20
2018-07-30T00:05:15.953Z,33.60
2018-07-30T00:07:48.268Z,32.80
2018-07-30T00:10:19.980Z,30.60
2018-07-30T00:12:51.628Z,33.00
2018-07-30T00:15:23.285Z,29.00
2018-07-30T00:17:54.677Z,33.20
2018-07-30T00:20:26.470Z,33.20
2018-07-30T00:22:58.540Z,31.80
2018-07-30T00:25:30.418Z,48.80
2018-07-30T00:28:02.421Z,36.40
2018-07-30T00:30:34.127Z,39.00
2018-07-30T00:33:05.891Z,38.40
2018-07-30T00:35:37.593Z,43.80
2018-07-30T00:38:09.564Z,36.80
2018-07-30T00:40:41.608Z,41.20
2018-07-30T00:43:13.243Z,36.60
2018-07-30T00:45:44.705Z,40.60
2018-07-30T00:48:16.514Z,39.40
2018-07-30T00:50:48.415Z,45.60
2018-07-30T00:53:20.229Z,42.40
2018-07-30T00:55:51.918Z,42.40
2018-07-30T00:58:23.998Z,41.20
2018-07-30T01:00:55.633Z,35.60
2018-07-30T01:03:27.282Z,39.00
2018-07-30T01:05:58.744Z,40.80
2018-07-30T01:08:30.350Z,33.60
2018-07-30T01:11:01.990Z,34.80
2018-07-30T01:13:33.981Z,39.40
2018-07-30T01:16:05.706Z,33.40
2018-07-30T01:18:37.617Z,38.00
2018-07-30T01:21:09.531Z,40.40
2018-07-30T01:23:41.399Z,36.40
2018-07-30T01:26:17.711Z,38.60
2018-07-30T01:28:49.565Z,35.60
2018-07-30T01:31:21.058Z,32.00
2018-07-30T01:33:52.930Z,34.60
2018-07-30T01:36:24.606Z,32.00
2018-07-30T01:38:56.516Z,32.80
2018-07-30T01:41:28.075Z,34.80
2018-07-30T01:43:59.488Z,37.60
2018-07-30T01:46:31.206Z,37.20
2018-07-30T01:49:03.213Z,38.60
2018-07-30T01:51:34.986Z,33.60
2018-07-30T01:54:07.107Z,36.80
2018-07-30T01:56:38.979Z,46.00
2018-07-30T01:59:11.005Z,24.80
2018-07-30T02:01:42.555Z,28.00
2018-07-30T02:04:14.309Z,28.00
2018-07-30T02:06:45.986Z,28.40
2018-07-30T02:09:17.680Z,23.20
2018-07-30T02:11:49.542Z,27.20
2018-07-30T02:14:21.342Z,31.60
2018-07-30T02:16:53.048Z,27.60
2018-07-30T02:19:24.841Z,29.40
2018-07-30T02:21:56.562Z,27.20
2018-07-30T02:24:28.313Z,31.20
2018-07-30T02:29:26.420Z,28.40
2018-07-30T02:31:59.119Z,29.20
2018-07-30T02:34:30.923Z,33.80
2018-07-30T02:37:02.948Z,34.40
2018-07-30T02:39:34.368Z,33.00
2018-07-30T02:42:11.127Z,33.60
2018-07-30T02:44:42.933Z,36.00
2018-07-30T02:47:14.331Z,30.00
2018-07-30T02:49:46.173Z,40.40
2018-07-30T02:52:17.805Z,45.00
2018-07-30T02:54:50.290Z,33.60
2018-07-30T02:57:22.045Z,42.00
2018-07-30T02:59:53.820Z,39.20
2018-07-30T03:02:25.825Z,44.80
2018-07-30T03:04:57.658Z,45.40
2018-07-30T03:07:29.585Z,43.60
2018-07-30T03:10:01.378Z,44.80
2018-07-30T03:12:33.365Z,41.20
2018-07-30T03:15:05.123Z,45.00
2018-07-30T03:17:37.104Z,52.40
2018-07-30T03:20:08.708Z,44.80
2018-07-30T03:22:40.871Z,30.20
2018-07-30T03:25:12.977Z,39.80
2018-07-30T03:27:44.580Z,40.40
2018-07-30T03:30:16.203Z,46.40
2018-07-30T03:32:48.099Z,41.20
2018-07-30T03:35:20.158Z,41.00
2018-07-30T03:37:52.147Z,42.40
2018-07-30T03:40:23.926Z,45.40
2018-07-30T03:42:55.777Z,47.60
2018-07-30T03:45:28.038Z,47.80
2018-07-30T03:47:59.599Z,51.00
2018-07-30T03:50:31.349Z,55.60
2018-07-30T03:53:02.812Z,49.80
2018-07-30T03:55:35.355Z,46.80
2018-07-30T03:58:07.324Z,48.20
2018-07-30T04:00:39.108Z,51.20
2018-07-30T04:03:11.128Z,50.00
2018-07-30T04:05:42.978Z,51.00
2018-07-30T04:08:15.035Z,50.40
2018-07-30T04:10:46.957Z,46.00
2018-07-30T04:13:18.932Z,50.60
2018-07-30T04:15:50.771Z,50.40
2018-07-30T04:18:22.577Z,54.80
2018-07-30T04:20:59.312Z,52.40
2018-07-30T04:23:31.218Z,51.40
2018-07-30T04:26:03.111Z,53.20
2018-07-30T04:28:34.794Z,54.00
2018-07-30T04:31:06.846Z,51.40
2018-07-30T04:33:38.791Z,54.80
2018-07-30T04:36:10.672Z,54.00
2018-07-30T04:38:42.666Z,53.80
2018-07-30T04:41:14.445Z,56.40
2018-07-30T04:43:46.603Z,56.20
2018-07-30T04:46:18.536Z,55.80
2018-07-30T04:48:50.627Z,49.00
2018-07-30T04:51:22.680Z,35.60
2018-07-30T04:53:55.117Z,48.80
2018-07-30T04:56:27.160Z,49.20
2018-07-30T04:58:59.417Z,43.60
2018-07-30T05:01:31.441Z,42.00
2018-07-30T05:04:04.111Z,45.20
2018-07-30T05:06:35.912Z,43.80
2018-07-30T05:09:10.433Z,42.60
2018-07-30T05:11:42.737Z,49.20
2018-07-30T05:14:15.110Z,45.80
2018-07-30T05:16:47.149Z,42.80
2018-07-30T05:19:19.553Z,46.20
2018-07-30T05:21:51.790Z,49.20
2018-07-30T05:24:23.827Z,42.60
2018-07-30T05:26:55.906Z,50.20
2018-07-30T05:29:28.112Z,47.00
2018-07-30T05:32:00.363Z,47.00
2018-07-30T05:34:32.458Z,48.80
2018-07-30T05:37:04.278Z,51.80
2018-07-30T05:39:36.472Z,51.40
2018-07-30T05:42:08.865Z,56.00
2018-07-30T05:44:41.224Z,58.60
2018-07-30T05:47:13.443Z,56.80
2018-07-30T05:49:45.370Z,55.40
2018-07-30T05:52:17.573Z,56.00
2018-07-30T05:54:50.411Z,54.40
2018-07-30T05:57:22.037Z,47.00
2018-07-30T05:59:54.061Z,54.20
2018-07-30T06:02:26.150Z,61.60
2018-07-30T06:04:58.161Z,61.20
2018-07-30T06:07:30.269Z,62.40
2018-07-30T06:10:17.939Z,62.40
2018-07-30T06:12:50.317Z,58.80
2018-07-30T06:15:22.399Z,55.40
2018-07-30T06:17:55.597Z,55.40
2018-07-30T06:20:28.124Z,56.20
2018-07-30T06:23:00.169Z,57.60
2018-07-30T06:25:32.179Z,56.40
2018-07-30T06:28:04.108Z,57.60
2018-07-30T06:30:36.155Z,62.20
2018-07-30T06:33:08.467Z,57.00
2018-07-30T06:35:40.431Z,55.80
2018-07-30T06:38:12.513Z,59.20
2018-07-30T06:40:44.700Z,54.20
2018-07-30T06:43:16.792Z,60.60
2018-07-30T06:45:49.507Z,53.40
2018-07-30T06:48:21.540Z,60.00
2018-07-30T06:50:53.882Z,60.40
2018-07-30T06:53:26.205Z,59.20
2018-07-30T06:55:59.374Z,58.60
2018-07-30T06:58:31.619Z,56.20
2018-07-30T07:01:04.313Z,58.80
2018-07-30T07:03:36.369Z,60.60
2018-07-30T07:06:08.781Z,59.60
2018-07-30T07:08:41.036Z,58.00
2018-07-30T07:11:13.153Z,61.00
2018-07-30T07:13:45.409Z,63.60
2018-07-30T07:16:17.393Z,62.80
2018-07-30T07:18:49.760Z,60.60
2018-07-30T07:21:22.378Z,57.80
2018-07-30T07:23:55.589Z,59.80
2018-07-30T07:26:27.979Z,59.60
2018-07-30T07:29:00.280Z,57.80
2018-07-30T07:31:33.383Z,63.80
2018-07-30T07:34:05.305Z,57.20
2018-07-30T07:36:37.893Z,55.40
2018-07-30T07:39:12.621Z,62.20
2018-07-30T07:41:45.230Z,57.80
2018-07-30T07:44:17.666Z,57.80
2018-07-30T07:46:50.008Z,57.40
2018-07-30T07:49:23.400Z,57.60
2018-07-30T07:51:55.957Z,58.00
2018-07-30T07:54:28.567Z,45.80
2018-07-30T07:57:03.203Z,62.20
2018-07-30T07:59:35.657Z,53.20
2018-07-30T08:02:08.221Z,57.80
2018-07-30T08:04:40.521Z,55.80
2018-07-30T08:07:13.810Z,54.60
2018-07-30T08:09:46.135Z,58.40
2018-07-30T08:12:20.915Z,55.00
2018-07-30T08:14:53.193Z,52.40
2018-07-30T08:17:25.320Z,52.20
2018-07-30T08:19:58.432Z,53.60
2018-07-30T08:22:31.144Z,50.80
2018-07-30T08:25:07.633Z,46.40
2018-07-30T08:27:40.346Z,52.60
2018-07-30T08:30:13.015Z,52.60
2018-07-30T08:32:45.748Z,57.40
2018-07-30T08:35:18.499Z,56.40
2018-07-30T08:37:51.183Z,59.60
2018-07-30T08:40:23.153Z,55.80
2018-07-30T08:42:55.500Z,52.40
2018-07-30T08:45:27.841Z,45.80
2018-07-30T08:48:00.278Z,55.00
2018-07-30T08:50:33.127Z,51.00
2018-07-30T08:53:05.514Z,53.60
2018-07-30T08:55:38.604Z,55.40
2018-07-30T08:58:11.973Z,52.80
2018-07-30T09:00:44.500Z,53.40
2018-07-30T09:03:17.090Z,53.80
2018-07-30T09:05:49.554Z,53.80
2018-07-30T09:08:21.920Z,54.80
2018-07-30T09:10:54.905Z,56.60
2018-07-30T09:13:29.569Z,52.60
2018-07-30T09:16:02.436Z,47.40
2018-07-30T09:18:35.219Z,47.60
2018-07-30T09:21:08.410Z,49.00
2018-07-30T09:23:41.242Z,48.00
2018-07-30T09:26:13.924Z,45.80
2018-07-30T09:28:46.683Z,48.80
2018-07-30T09:31:18.767Z,50.80
2018-07-30T09:33:51.534Z,51.20
2018-07-30T09:36:27.545Z,45.80
2018-07-30T09:39:02.152Z,49.20
2018-07-30T09:41:38.793Z,48.40
2018-07-30T09:44:19.768Z,50.80
2018-07-30T09:46:59.042Z,47.80
2018-07-30T09:49:42.878Z,49.20
2018-07-30T09:52:21.634Z,48.20
2018-07-30T09:55:02.549Z,51.20
2018-07-30T09:57:42.260Z,53.40
2018-07-30T10:00:24.463Z,47.60
2018-07-30T10:03:05.316Z,51.20
2018-07-30T10:05:43.318Z,48.20
2018-07-30T10:08:21.142Z,49.00
2018-07-30T10:11:01.440Z,50.20
2018-07-30T10:13:42.321Z,43.20
2018-07-30T10:16:24.068Z,48.60
2018-07-30T10:19:06.182Z,46.20
2018-07-30T10:21:46.718Z,50.80
2018-07-30T10:24:25.914Z,45.20
2018-07-30T10:27:02.036Z,44.60
2018-07-30T10:29:37.921Z,47.60
2018-07-30T10:32:14.270Z,45.60
2018-07-30T10:34:49.744Z,50.00
2018-07-30T10:37:26.619Z,46.40
2018-07-30T10:40:05.062Z,43.60
2018-07-30T10:42:48.582Z,42.60
2018-07-30T10:45:30.913Z,46.80
2018-07-30T10:48:09.144Z,43.00
2018-07-30T10:50:47.441Z,46.20
2018-07-30T10:53:24.444Z,40.60
2018-07-30T10:56:02.702Z,42.60
2018-07-30T10:58:40.371Z,45.20
2018-07-30T11:01:20.627Z,44.60
2018-07-30T11:04:00.131Z,47.00
2018-07-30T11:06:41.914Z,47.60
2018-07-30T11:09:19.481Z,42.40
2018-07-30T11:12:00.692Z,50.80
2018-07-30T11:14:39.641Z,40.80
2018-07-30T11:17:19.059Z,45.40
2018-07-30T11:19:56.274Z,42.80
2018-07-30T11:22:33.773Z,44.20
2018-07-30T11:25:09.855Z,44.20
2018-07-30T11:27:46.827Z,46.40
2018-07-30T11:30:22.865Z,46.80
2018-07-30T11:32:58.520Z,45.20
2018-07-30T11:35:36.450Z,49.40
2018-07-30T11:38:16.088Z,48.40
2018-07-30T11:40:51.539Z,48.00
2018-07-30T11:43:27.326Z,45.20
2018-07-30T11:46:05.057Z,39.00
2018-07-30T11:48:42.292Z,38.80
2018-07-30T11:51:18.025Z,47.60
2018-07-30T11:53:52.178Z,43.60
2018-07-30T11:56:25.617Z,42.60
2018-07-30T11:58:58.045Z,43.00
2018-07-30T12:01:30.552Z,45.80
2018-07-30T12:04:03.722Z,43.60
2018-07-30T12:06:41.705Z,40.00
2018-07-30T12:09:15.761Z,43.60
2018-07-30T12:11:48.616Z,42.40
2018-07-30T12:14:21.812Z,45.40
2018-07-30T12:16:56.846Z,40.20
2018-07-30T12:19:29.988Z,46.60
2018-07-30T12:22:02.619Z,37.00
2018-07-30T12:24:35.685Z,44.20
2018-07-30T12:27:08.598Z,44.80
2018-07-30T12:29:41.361Z,42.00
2018-07-30T12:32:15.513Z,43.80
2018-07-30T12:34:47.636Z,43.00
2018-07-30T12:37:20.613Z,47.60
2018-07-30T12:39:52.509Z,45.60
2018-07-30T12:42:24.941Z,41.00
2018-07-30T12:44:58.591Z,39.80
2018-07-30T12:47:32.869Z,44.00
2018-07-30T12:50:05.332Z,40.80
2018-07-30T12:52:37.489Z,45.60
2018-07-30T12:55:09.948Z,39.40
2018-07-30T12:57:45.092Z,36.60
2018-07-30T13:00:17.074Z,41.20
2018-07-30T13:02:49.979Z,39.20
2018-07-30T13:05:23.007Z,41.80
2018-07-30T13:07:55.517Z,39.20
2018-07-30T13:10:27.744Z,40.00
2018-07-30T13:13:00.215Z,41.80
2018-07-30T13:15:32.811Z,46.80
2018-07-30T13:18:04.912Z,40.80
2018-07-30T13:20:38.360Z,46.80
2018-07-30T13:23:10.330Z,35.40
2018-07-30T13:25:43.299Z,42.80
2018-07-30T13:28:15.922Z,40.40
2018-07-30T13:30:48.601Z,41.40
2018-07-30T13:33:21.109Z,39.60
2018-07-30T13:35:53.602Z,41.80
2018-07-30T13:38:26.307Z,42.00
2018-07-30T13:40:59.693Z,45.20
2018-07-30T13:43:33.180Z,44.20
2018-07-30T13:46:05.701Z,40.20
2018-07-30T13:48:38.012Z,49.20
2018-07-30T13:51:10.488Z,44.60
2018-07-30T13:53:42.762Z,34.80
2018-07-30T13:56:15.047Z,38.60
2018-07-30T13:58:47.437Z,36.40
2018-07-30T14:01:19.789Z,39.60
2018-07-30T14:03:51.799Z,43.20
2018-07-30T14:06:25.784Z,45.40
2018-07-30T14:08:58.568Z,48.20
2018-07-30T14:11:31.397Z,45.80
2018-07-30T14:14:03.856Z,46.20
2018-07-30T14:16:39.412Z,49.20
2018-07-30T14:19:12.034Z,50.80
2018-07-30T14:21:44.371Z,50.40
2018-07-30T14:24:16.564Z,52.80
2018-07-30T14:26:48.490Z,52.40
2018-07-30T14:29:21.008Z,48.80
2018-07-30T14:31:54.702Z,50.00
2018-07-30T14:34:27.660Z,53.80
2018-07-30T14:37:00.307Z,48.80
2018-07-30T14:39:32.371Z,51.80
2018-07-30T14:42:05.134Z,49.80
2018-07-30T14:44:37.784Z,49.00
2018-07-30T14:47:09.940Z,46.40
2018-07-30T14:49:42.085Z,47.00
2018-07-30T14:52:17.309Z,50.40
2018-07-30T14:54:50.049Z,52.20
2018-07-30T14:57:22.481Z,51.00
2018-07-30T14:59:55.177Z,50.80
2018-07-30T15:02:27.673Z,56.20
2018-07-30T15:05:05.194Z,58.20
2018-07-30T15:07:42.822Z,59.60
2018-07-30T15:10:14.985Z,56.60
2018-07-30T15:12:48.463Z,57.40
2018-07-30T15:15:21.518Z,62.60
2018-07-30T15:17:54.694Z,55.80
2018-07-30T15:20:26.874Z,58.40
2018-07-30T15:22:58.885Z,63.40
2018-07-30T15:25:30.692Z,59.40
2018-07-30T15:28:02.635Z,63.60
2018-07-30T15:30:34.384Z,61.60
2018-07-30T15:33:06.313Z,59.00
2018-07-30T15:35:38.043Z,61.20
2018-07-30T15:38:10.060Z,61.80
2018-07-30T15:40:41.840Z,56.20
2018-07-30T15:43:13.936Z,57.60
2018-07-30T15:45:45.849Z,57.20
2018-07-30T15:48:17.850Z,58.80
2018-07-30T15:50:49.721Z,56.00
2018-07-30T15:53:21.625Z,55.40
2018-07-30T15:55:53.682Z,54.60
2018-07-30T15:58:25.473Z,52.20
2018-07-30T16:00:57.198Z,56.00
2018-07-30T16:03:29.281Z,54.00
2018-07-30T16:06:01.460Z,48.40
2018-07-30T16:08:34.140Z,49.80
2018-07-30T16:11:05.982Z,49.40
2018-07-30T16:13:38.014Z,50.60
2018-07-30T16:16:09.946Z,44.80
2018-07-30T16:18:41.700Z,51.60
2018-07-30T16:21:13.654Z,52.80
2018-07-30T16:23:45.553Z,47.00
2018-07-30T16:26:17.084Z,49.20
2018-07-30T16:28:49.242Z,44.40
2018-07-30T16:31:20.952Z,51.80
2018-07-30T16:33:52.927Z,46.80
2018-07-30T16:36:24.873Z,49.60
2018-07-30T16:38:56.733Z,49.40
2018-07-30T16:41:28.633Z,46.20
2018-07-30T16:44:00.756Z,46.60
2018-07-30T16:46:33.360Z,47.40
2018-07-30T16:49:05.105Z,43.80
2018-07-30T16:51:36.982Z,47.00
2018-07-30T16:54:10.317Z,46.20
2018-07-30T16:56:42.551Z,44.80
2018-07-30T16:59:14.805Z,44.00
2018-07-30T17:01:47.145Z,38.60
2018-07-30T17:04:19.572Z,47.20
2018-07-30T17:06:52.151Z,45.40
2018-07-30T17:09:25.876Z,43.60
2018-07-30T17:11:58.066Z,43.60
2018-07-30T17:14:29.904Z,44.40
2018-07-30T17:17:02.746Z,38.00
2018-07-30T17:19:34.966Z,43.00
2018-07-30T17:22:07.081Z,37.60
2018-07-30T17:24:39.065Z,43.20
2018-07-30T17:27:11.523Z,45.60
2018-07-30T17:29:43.972Z,39.20
2018-07-30T17:32:16.011Z,46.00
2018-07-30T17:34:48.283Z,42.40
2018-07-30T17:37:20.389Z,33.80
2018-07-30T17:39:52.336Z,42.20
2018-07-30T17:42:24.395Z,41.20
2018-07-30T17:44:55.963Z,40.20
2018-07-30T17:47:28.395Z,42.60
2018-07-30T17:50:00.193Z,43.40
2018-07-30T17:52:32.008Z,32.00
2018-07-30T17:55:03.938Z,41.40
2018-07-30T17:57:35.900Z,38.40
2018-07-30T18:00:09.100Z,41.00
2018-07-30T18:02:41.079Z,37.40
2018-07-30T18:05:13.353Z,42.60
2018-07-30T18:07:45.069Z,38.20
2018-07-30T18:10:17.410Z,38.60
2018-07-30T18:12:49.663Z,40.80
2018-07-30T18:15:21.364Z,45.20
2018-07-30T18:17:53.273Z,42.00
2018-07-30T18:23:01.866Z,36.80
2018-07-30T18:25:33.881Z,40.20
2018-07-30T18:28:05.667Z,38.40
2018-07-30T18:30:37.544Z,42.60
2018-07-30T18:33:09.589Z,37.00
2018-07-30T18:35:41.476Z,44.00
2018-07-30T18:38:13.529Z,43.20
2018-07-30T18:40:45.385Z,40.40
2018-07-30T18:43:17.540Z,38.00
2018-07-30T18:45:50.244Z,37.20
2018-07-30T18:48:22.092Z,35.40
2018-07-30T18:50:53.476Z,40.40
2018-07-30T18:53:25.584Z,34.80
2018-07-30T18:55:57.301Z,37.00
2018-07-30T18:58:29.230Z,34.00
2018-07-30T19:01:01.024Z,35.80
2018-07-30T19:03:32.737Z,31.60
2018-07-30T19:06:04.602Z,43.00
2018-07-30T19:08:36.266Z,43.00
2018-07-30T19:11:08.979Z,39.20
2018-07-30T19:13:40.815Z,41.80
2018-07-30T19:16:12.486Z,48.40
2018-07-30T19:18:44.320Z,48.60
2018-07-30T19:21:16.010Z,41.20
2018-07-30T19:23:47.785Z,39.00
2018-07-30T19:26:19.504Z,42.60
2018-07-30T19:28:51.492Z,37.80
2018-07-30T19:31:23.202Z,46.60
2018-07-30T19:33:55.128Z,40.20
2018-07-30T19:36:26.937Z,44.60
2018-07-30T19:38:58.804Z,39.60
2018-07-30T19:41:30.743Z,42.60
2018-07-30T19:44:02.367Z,32.40
2018-07-30T19:46:34.188Z,30.80
2018-07-30T19:49:06.438Z,31.00
2018-07-30T19:51:38.109Z,23.80
2018-07-30T19:54:10.084Z,24.60
2018-07-30T19:56:41.663Z,20.40
2018-07-30T19:59:13.524Z,28.20
2018-07-30T20:01:45.393Z,29.20
2018-07-30T20:04:17.271Z,23.00
2018-07-30T20:06:48.938Z,28.40
2018-07-30T20:09:21.635Z,24.00
2018-07-30T20:11:53.810Z,23.00
2018-07-30T20:14:25.458Z,20.60
2018-07-30T20:16:57.221Z,21.80
2018-07-30T20:19:29.559Z,19.40
2018-07-30T20:22:00.978Z,22.40
2018-07-30T20:24:32.873Z,18.80
2018-07-30T20:27:04.332Z,21.60
2018-07-30T20:29:36.236Z,21.00
2018-07-30T20:32:08.234Z,23.60
2018-07-30T20:34:39.967Z,20.60
2018-07-30T20:37:11.857Z,21.00
2018-07-30T20:39:43.560Z,19.60
2018-07-30T20:42:15.496Z,20.60
2018-07-30T20:44:47.282Z,21.20
2018-07-30T20:47:19.190Z,21.20
2018-07-30T20:49:50.976Z,19.20
2018-07-30T20:52:22.848Z,18.00
2018-07-30T20:54:54.810Z,16.40
2018-07-30T20:57:26.543Z,16.00
2018-07-30T20:59:58.204Z,15.00
2018-07-30T21:02:29.994Z,19.20
2018-07-30T21:05:01.809Z,18.60
2018-07-30T21:07:33.623Z,18.00
2018-07-30T21:10:05.526Z,16.00
2018-07-30T21:12:37.689Z,16.60
2018-07-30T21:15:09.103Z,16.00
2018-07-30T21:17:40.950Z,16.80
2018-07-30T21:20:12.634Z,19.40
2018-07-30T21:22:44.502Z,14.80
2018-07-30T21:25:16.179Z,12.60
2018-07-30T21:27:47.988Z,9.00
2018-07-30T21:30:19.653Z,10.40
2018-07-30T21:32:51.570Z,11.40
2018-07-30T21:35:22.972Z,10.20
2018-07-30T21:37:54.629Z,10.60
2018-07-30T21:40:26.260Z,14.80
2018-07-30T21:42:58.242Z,12.80
2018-07-30T21:45:29.988Z,11.80
2018-07-30T21:48:01.848Z,12.80
2018-07-30T21:50:33.549Z,14.20
2018-07-30T21:53:05.497Z,13.00
2018-07-30T21:55:37.460Z,13.20
2018-07-30T21:58:09.320Z,15.60
2018-07-30T22:00:44.435Z,14.60
2018-07-30T22:03:16.300Z,15.20
2018-07-30T22:05:52.433Z,18.00
2018-07-30T22:08:24.292Z,15.60
2018-07-30T22:10:55.955Z,13.80
2018-07-30T22:13:27.523Z,16.80
2018-07-30T22:15:59.105Z,16.60
2018-07-30T22:18:30.939Z,15.00
2018-07-30T22:21:02.609Z,16.00
2018-07-30T22:23:34.370Z,12.20
2018-07-30T22:26:06.309Z,16.00
2018-07-30T22:28:38.197Z,11.20
2018-07-30T22:31:09.894Z,11.00
2018-07-30T22:33:43.454Z,11.40
2018-07-30T22:36:15.020Z,17.80
2018-07-30T22:38:46.883Z,12.00
2018-07-30T22:41:18.322Z,15.80
2018-07-30T22:43:50.394Z,13.80
2018-07-30T22:46:22.104Z,15.60
2018-07-30T22:48:53.835Z,14.80
2018-07-30T22:51:26.028Z,13.20
2018-07-30T22:53:57.564Z,11.20
2018-07-30T22:56:29.323Z,13.20
2018-07-30T22:59:00.944Z,16.20
2018-07-30T23:01:32.559Z,15.80
2018-07-30T23:04:04.401Z,13.00
2018-07-30T23:06:36.148Z,11.60
2018-07-30T23:09:09.608Z,15.00
2018-07-30T23:11:42.965Z,10.60
2018-07-30T23:14:14.771Z,13.00
2018-07-30T23:16:46.637Z,12.60
2018-07-30T23:19:18.528Z,14.80
2018-07-30T23:21:50.236Z,12.60
2018-07-30T23:24:21.762Z,12.60
2018-07-30T23:26:53.433Z,12.00
2018-07-30T23:29:25.077Z,13.20
2018-07-30T23:31:56.730Z,10.00
2018-07-30T23:34:29.898Z,11.20
2018-07-30T23:37:01.793Z,9.80
2018-07-30T23:39:33.606Z,11.60
2018-07-30T23:42:05.451Z,11.20
2018-07-30T23:44:37.347Z,10.20
2018-07-30T23:47:09.102Z,7.00
2018-07-30T23:49:41.014Z,8.80
2018-07-30T23:52:12.926Z,9.20
2018-07-30T23:54:44.672Z,11.80
2018-07-30T23:57:16.321Z,11.00
2018-07-30T23:59:48.174Z,7.80
